Погода Агуаина 2 недели

Сан-Паулу, Бразилия

18 - 31 июля
  • 18июля
    Сегодня
    +11°
    +27°
    Ясно и безоблачно
    ВремяПогодаТемператураВлажностьДавлениеВетер, м/сВероятность осадков
    00:00Ясно и безоблачно+16°C74 %710 мм1.9 м/с5 %
    03:00Ясно и безоблачно+15°C76 %709 мм2.0 м/с5 %
    06:00Ясно и безоблачно+13°C82 %709 мм1.7 м/с5 %
    09:00Ясно и безоблачно+18°C62 %711 мм0.4 м/с5 %
    12:00Ясно и безоблачно+24°C32 %711 мм0.5 м/с5 %
    15:00Ясно и безоблачно+26°C30 %710 мм0.8 м/с5 %
    18:00Ясно и безоблачно+22°C44 %709 мм2.6 м/с5 %
    21:00Ясно и безоблачно+17°C62 %710 мм2.0 м/с5 %
  • 19июля
    Пятница
    +11°
    +27°
    Ясно и безоблачно
    ВремяПогодаТемператураВлажностьДавлениеВетер, м/сВероятность осадков
    00:00Ясно и безоблачно+16°C74 %710 мм2.1 м/с5 %
    03:00Ясно и безоблачно+13°C79 %709 мм1.3 м/с5 %
    06:00Ясно и безоблачно+11°C81 %709 мм1.2 м/с5 %
    09:00Ясно и безоблачно+15°C66 %712 мм0.3 м/с5 %
    12:00Ясно и безоблачно+24°C42 %713 мм1.5 м/с5 %
    15:00Ясно и безоблачно+26°C35 %711 мм1.7 м/с5 %
    18:00Ясно и безоблачно+23°C53 %711 мм2.7 м/с5 %
    21:00Ясно и безоблачно+18°C66 %711 мм2.4 м/с5 %
  • 20июля
    Суббота
    +9°
    +27°
    Ясно и безоблачно
    ВремяПогодаТемператураВлажностьДавлениеВетер, м/сВероятность осадков
    00:00Ясно и безоблачно+17°C74 %711 мм2.1 м/с5 %
    03:00Ясно и безоблачно+16°C77 %710 мм0.4 м/с5 %
    06:00Ясно и безоблачно+12°C88 %709 мм1.1 м/с5 %
    09:00Ясно и безоблачно+16°C70 %711 мм0.3 м/с5 %
    12:00Ясно и безоблачно+24°C45 %712 мм1.6 м/с5 %
    15:00Ясно и безоблачно+27°C39 %710 мм2.2 м/с5 %
    18:00Ясно и безоблачно+22°C55 %710 мм2.3 м/с5 %
    21:00Ясно и безоблачно+17°C70 %709 мм1.7 м/с5 %
  • 21июля
    Воскресенье
    +11°
    +27°
    Ясно и безоблачно
    ВремяПогодаТемператураВлажностьДавлениеВетер, м/сВероятность осадков
    00:00Ясно и безоблачно+15°C80 %709 мм1.4 м/с5 %
    03:00Ясно и безоблачно+13°C90 %708 мм1.4 м/с5 %
    06:00Ясно и безоблачно+10°C94 %709 мм1.1 м/с5 %
    09:00Ясно и безоблачно+16°C71 %711 мм0.7 м/с5 %
    12:00Ясно и безоблачно+24°C45 %711 мм0.6 м/с5 %
    15:00Ясно и безоблачно+27°C35 %710 мм0.4 м/с5 %
    18:00Ясно и безоблачно+22°C52 %709 мм2.0 м/с5 %
    21:00Ясно и безоблачно+17°C71 %709 мм1.9 м/с5 %
  • 22июля
    Понедельник
    +12°
    +28°
    Небольшая облачность
    ВремяПогодаТемператураВлажностьДавлениеВетер, м/сВероятность осадков
    00:00Ясно и безоблачно+15°C79 %709 мм1.7 м/с5 %
    03:00Ясно и безоблачно+14°C81 %709 мм0.9 м/с5 %
    06:00Ясно и безоблачно+12°C89 %709 мм1.8 м/с5 %
    09:00Ясно и безоблачно+17°C66 %712 мм0.4 м/с5 %
    12:00Ясно и безоблачно+25°C38 %712 мм0.9 м/с5 %
    15:00Небольшая облачность+27°C31 %710 мм0.1 м/с5 %
    18:00Ясно и безоблачно+23°C47 %710 мм2.3 м/с5 %
    21:00Ясно и безоблачно+18°C58 %710 мм2.2 м/с5 %
Мы используем cookies
Соглашаюсь